createdAt,value
2018-05-23T00:00:41.398Z,28.90
2018-05-23T00:01:41.384Z,30.50
2018-05-23T00:02:41.403Z,30.30
2018-05-23T00:03:41.349Z,29.50
2018-05-23T00:04:41.350Z,30.70
2018-05-23T00:05:41.325Z,31.10
2018-05-23T00:06:41.301Z,31.40
2018-05-23T00:07:41.287Z,31.50
2018-05-23T00:08:41.298Z,31.60
2018-05-23T00:09:41.278Z,32.10
2018-05-23T00:10:41.311Z,30.30
2018-05-23T00:11:41.221Z,31.60
2018-05-23T00:12:41.238Z,30.60
2018-05-23T00:13:41.186Z,30.10
2018-05-23T00:14:41.170Z,30.50
2018-05-23T00:15:41.163Z,30.00
2018-05-23T00:16:41.145Z,32.70
2018-05-23T00:17:41.118Z,30.60
2018-05-23T00:18:41.184Z,29.80
2018-05-23T00:19:41.118Z,30.90
2018-05-23T00:20:41.103Z,32.00
2018-05-23T00:21:41.098Z,30.90
2018-05-23T00:22:41.061Z,32.30
2018-05-23T00:23:41.027Z,31.50
2018-05-23T00:24:41.005Z,32.00
2018-05-23T00:25:41.038Z,33.20
2018-05-23T00:26:40.989Z,31.60
2018-05-23T00:27:40.970Z,32.70
2018-05-23T00:28:40.942Z,33.30
2018-05-23T00:29:40.940Z,33.80
2018-05-23T00:30:40.910Z,32.90
2018-05-23T00:31:40.916Z,32.30
2018-05-23T00:32:40.885Z,33.50
2018-05-23T00:33:40.878Z,34.10
2018-05-23T00:34:40.862Z,32.40
2018-05-23T00:35:40.821Z,34.10
2018-05-23T00:36:40.819Z,33.40
2018-05-23T00:37:40.805Z,33.10
2018-05-23T00:38:40.785Z,33.30
2018-05-23T00:39:40.759Z,32.30
2018-05-23T00:40:40.773Z,32.50
2018-05-23T00:41:40.734Z,34.10
2018-05-23T00:42:40.732Z,33.10
2018-05-23T00:43:40.707Z,34.00
2018-05-23T00:44:40.690Z,34.20
2018-05-23T00:45:40.672Z,35.30
2018-05-23T00:46:40.704Z,35.20
2018-05-23T00:47:40.629Z,36.40
2018-05-23T00:48:40.650Z,36.60
2018-05-23T00:49:40.627Z,36.90
2018-05-23T00:50:40.589Z,38.10
2018-05-23T00:51:40.575Z,37.60
2018-05-23T00:52:40.548Z,36.60
2018-05-23T00:53:40.548Z,37.10
2018-05-23T00:54:40.518Z,36.70
2018-05-23T00:55:40.500Z,37.20
2018-05-23T00:56:40.500Z,37.50
2018-05-23T00:57:40.461Z,38.00
2018-05-23T00:58:40.462Z,38.10
2018-05-23T00:59:40.451Z,39.00
2018-05-23T01:00:40.423Z,37.90
2018-05-23T01:01:40.392Z,38.90
2018-05-23T01:02:40.422Z,40.50
2018-05-23T01:03:40.421Z,38.80
2018-05-23T01:04:40.400Z,39.60
2018-05-23T01:05:40.351Z,39.10
2018-05-23T01:06:40.344Z,40.00
2018-05-23T01:07:40.300Z,40.00
2018-05-23T01:08:40.303Z,39.60
2018-05-23T01:09:40.264Z,41.10
2018-05-23T01:10:40.289Z,40.70
2018-05-23T01:11:40.293Z,42.10
2018-05-23T01:12:40.224Z,41.50
2018-05-23T01:13:40.223Z,42.50
2018-05-23T01:14:40.196Z,41.40
2018-05-23T01:15:40.187Z,41.70
2018-05-23T01:16:40.158Z,41.20
2018-05-23T01:17:40.148Z,41.40
2018-05-23T01:18:40.136Z,40.10
2018-05-23T01:19:40.100Z,41.40
2018-05-23T01:20:40.095Z,43.00
2018-05-23T01:21:40.073Z,41.70
2018-05-23T01:22:40.052Z,42.40
2018-05-23T01:23:40.035Z,40.10
2018-05-23T01:24:40.010Z,42.70
2018-05-23T01:25:40.017Z,42.00
2018-05-23T01:26:39.981Z,41.50
2018-05-23T01:27:39.986Z,40.30
2018-05-23T01:28:39.977Z,40.00
2018-05-23T01:29:39.961Z,41.90
2018-05-23T01:30:39.945Z,42.10
2018-05-23T01:31:39.920Z,41.20
2018-05-23T01:32:39.905Z,41.20
2018-05-23T01:33:39.890Z,40.60
2018-05-23T01:34:39.863Z,39.70
2018-05-23T01:35:39.846Z,42.20
2018-05-23T01:36:39.834Z,41.10
2018-05-23T01:37:39.797Z,40.20
2018-05-23T01:38:39.832Z,40.70
2018-05-23T01:39:39.788Z,40.10
2018-05-23T01:40:39.772Z,41.10
2018-05-23T01:41:39.770Z,40.20
2018-05-23T01:42:39.732Z,40.80
2018-05-23T01:43:39.752Z,40.40
2018-05-23T01:44:39.723Z,43.90
2018-05-23T01:45:39.687Z,41.60
2018-05-23T01:46:39.665Z,42.30
2018-05-23T01:47:39.631Z,40.80
2018-05-23T01:48:39.632Z,41.70
2018-05-23T01:49:39.639Z,40.50
2018-05-23T01:50:39.611Z,40.10
2018-05-23T01:51:39.584Z,40.10
2018-05-23T01:52:39.614Z,38.40
2018-05-23T01:53:39.565Z,39.50
2018-05-23T01:54:39.517Z,38.40
2018-05-23T01:55:39.515Z,39.20
2018-05-23T01:56:39.490Z,37.80
2018-05-23T01:57:39.487Z,36.80
2018-05-23T01:58:39.479Z,38.70
2018-05-23T01:59:39.434Z,37.90
2018-05-23T02:00:39.460Z,37.00
2018-05-23T02:01:39.408Z,37.20
2018-05-23T02:02:39.381Z,37.30
2018-05-23T02:03:39.389Z,36.90
2018-05-23T02:04:39.372Z,37.60
2018-05-23T02:05:39.352Z,37.70
2018-05-23T02:06:39.333Z,36.10
2018-05-23T02:07:39.319Z,35.50
2018-05-23T02:08:39.282Z,35.50
2018-05-23T02:09:39.321Z,35.00
2018-05-23T02:10:39.293Z,34.80
2018-05-23T02:11:39.260Z,34.10
2018-05-23T02:12:39.218Z,35.50
2018-05-23T02:13:39.226Z,34.80
2018-05-23T02:14:39.199Z,35.10
2018-05-23T02:15:39.167Z,33.60
2018-05-23T02:16:39.172Z,34.50
2018-05-23T02:17:39.162Z,34.80
2018-05-23T02:18:39.152Z,34.60
2018-05-23T02:19:39.118Z,35.40
2018-05-23T02:20:39.080Z,34.00
2018-05-23T02:21:39.086Z,34.60
2018-05-23T02:22:39.055Z,33.80
2018-05-23T02:23:39.060Z,33.50
2018-05-23T02:24:39.028Z,33.90
2018-05-23T02:25:39.014Z,33.30
2018-05-23T02:26:38.985Z,34.20
2018-05-23T02:27:38.977Z,33.70
2018-05-23T02:28:38.957Z,34.90
2018-05-23T02:29:38.942Z,33.50
2018-05-23T02:30:38.934Z,34.10
2018-05-23T02:31:38.904Z,33.50
2018-05-23T02:32:38.882Z,33.50
2018-05-23T02:33:38.878Z,32.80
2018-05-23T02:34:38.874Z,32.40
2018-05-23T02:35:38.845Z,33.20
2018-05-23T02:36:38.823Z,33.00
2018-05-23T02:37:38.817Z,32.30
2018-05-23T02:38:38.809Z,32.60
2018-05-23T02:39:38.774Z,32.10
2018-05-23T02:40:38.776Z,31.70
2018-05-23T02:41:38.742Z,32.70
2018-05-23T02:42:38.721Z,31.30
2018-05-23T02:43:38.709Z,30.80
2018-05-23T02:44:38.720Z,31.80
2018-05-23T02:45:38.684Z,31.90
2018-05-23T02:46:38.652Z,30.50
2018-05-23T02:47:38.641Z,31.10
2018-05-23T02:48:38.651Z,30.60
2018-05-23T02:49:38.647Z,30.30
2018-05-23T02:50:38.586Z,29.70
2018-05-23T02:51:38.569Z,29.60
2018-05-23T02:52:38.568Z,29.90
2018-05-23T02:53:38.557Z,28.50
2018-05-23T02:54:38.528Z,28.40
2018-05-23T02:55:38.541Z,28.90
2018-05-23T02:56:38.538Z,29.00
2018-05-23T02:57:38.495Z,28.80
2018-05-23T02:58:38.463Z,28.60
2018-05-23T02:59:38.459Z,28.50
2018-05-23T03:00:38.458Z,29.50
2018-05-23T03:01:38.429Z,29.20
2018-05-23T03:02:38.424Z,29.00
2018-05-23T03:03:38.367Z,28.20
2018-05-23T03:04:38.414Z,27.20
2018-05-23T03:05:38.338Z,28.10
2018-05-23T03:06:38.324Z,27.70
2018-05-23T03:07:38.335Z,27.00
2018-05-23T03:08:38.293Z,27.50
2018-05-23T03:09:38.280Z,27.40
2018-05-23T03:10:38.274Z,25.80
2018-05-23T03:11:38.231Z,26.50
2018-05-23T03:12:38.227Z,26.20
2018-05-23T03:13:38.208Z,25.50
2018-05-23T03:14:38.203Z,24.70
2018-05-23T03:15:38.165Z,24.90
2018-05-23T03:16:38.178Z,24.30
2018-05-23T03:17:38.167Z,23.70
2018-05-23T03:18:38.117Z,24.00
2018-05-23T03:19:38.139Z,23.50
2018-05-23T03:20:38.105Z,22.70
2018-05-23T03:21:38.081Z,22.40
2018-05-23T03:22:38.088Z,23.20
2018-05-23T03:23:38.065Z,23.10
2018-05-23T03:24:38.022Z,22.00
2018-05-23T03:25:38.019Z,22.10
2018-05-23T03:26:37.998Z,22.40
2018-05-23T03:27:37.981Z,21.60
2018-05-23T03:28:38.017Z,21.20
2018-05-23T03:29:37.940Z,21.80
2018-05-23T03:30:37.956Z,22.10
2018-05-23T03:31:37.921Z,20.90
2018-05-23T03:32:37.922Z,20.80
2018-05-23T03:33:37.904Z,20.90
2018-05-23T03:34:37.872Z,20.50
2018-05-23T03:35:37.882Z,20.30
2018-05-23T03:36:37.852Z,21.30
2018-05-23T03:37:37.820Z,19.80
2018-05-23T03:38:37.824Z,19.90
2018-05-23T03:39:37.774Z,20.10
2018-05-23T03:40:37.775Z,19.90
2018-05-23T03:41:37.752Z,20.70
2018-05-23T03:42:37.743Z,19.70
2018-05-23T03:43:37.720Z,19.70
2018-05-23T03:44:37.697Z,19.80
2018-05-23T03:45:37.721Z,19.50
2018-05-23T03:46:37.680Z,20.10
2018-05-23T03:47:37.655Z,19.50
2018-05-23T03:48:37.628Z,19.50
2018-05-23T03:49:37.631Z,19.80
2018-05-23T03:50:37.595Z,19.20
2018-05-23T03:51:37.579Z,18.40
2018-05-23T03:52:37.562Z,18.90
2018-05-23T03:53:37.564Z,19.80
2018-05-23T03:54:37.605Z,19.10
2018-05-23T03:55:37.530Z,18.20
2018-05-23T03:56:37.556Z,18.30
2018-05-23T03:57:37.533Z,18.60
2018-05-23T03:58:37.485Z,18.60
2018-05-23T03:59:37.458Z,19.10
2018-05-23T04:00:37.422Z,17.90
2018-05-23T04:01:37.405Z,18.60
2018-05-23T04:02:37.402Z,19.10
2018-05-23T04:03:37.394Z,18.40
2018-05-23T04:04:37.374Z,19.10
2018-05-23T04:05:37.365Z,18.90
2018-05-23T04:06:37.330Z,18.80
2018-05-23T04:07:37.309Z,18.50
2018-05-23T04:08:37.304Z,18.30
2018-05-23T04:09:37.311Z,19.00
2018-05-23T04:10:37.292Z,18.10
2018-05-23T04:11:37.299Z,17.20
2018-05-23T04:12:37.254Z,17.50
2018-05-23T04:13:37.237Z,18.00
2018-05-23T04:14:37.194Z,17.70
2018-05-23T04:15:37.185Z,17.40
2018-05-23T04:16:37.166Z,18.60
2018-05-23T04:17:37.139Z,18.30
2018-05-23T04:18:37.124Z,17.70
2018-05-23T04:19:37.108Z,17.20
2018-05-23T04:20:37.096Z,17.20
2018-05-23T04:21:37.103Z,16.80
2018-05-23T04:22:37.074Z,17.70
2018-05-23T04:23:37.059Z,17.40
2018-05-23T04:24:37.030Z,17.70
2018-05-23T04:25:37.010Z,16.60
2018-05-23T04:26:36.990Z,17.60
2018-05-23T04:27:36.976Z,17.70
2018-05-23T04:28:36.962Z,16.50
2018-05-23T04:29:36.943Z,17.10
2018-05-23T04:30:36.941Z,17.20
2018-05-23T04:31:36.902Z,16.70
2018-05-23T04:32:36.896Z,16.90
2018-05-23T04:33:36.876Z,17.30
2018-05-23T04:34:36.891Z,16.60
2018-05-23T04:35:36.838Z,16.00
2018-05-23T04:36:36.838Z,17.10
2018-05-23T04:37:36.812Z,16.10
2018-05-23T04:38:36.822Z,16.00
2018-05-23T04:39:36.799Z,16.60
2018-05-23T04:40:36.767Z,16.50
2018-05-23T04:41:36.775Z,15.90
2018-05-23T04:42:36.739Z,16.50
2018-05-23T04:43:36.724Z,15.70
2018-05-23T04:44:36.694Z,16.30
2018-05-23T04:45:36.679Z,16.40
2018-05-23T04:46:36.683Z,16.00
2018-05-23T04:47:36.665Z,16.60
2018-05-23T04:48:36.655Z,16.60
2018-05-23T04:49:36.607Z,17.50
2018-05-23T04:50:36.587Z,16.80
2018-05-23T04:51:36.578Z,16.60
2018-05-23T04:52:36.620Z,16.30
2018-05-23T04:53:36.532Z,16.60
2018-05-23T04:54:36.516Z,16.10
2018-05-23T04:55:36.610Z,16.60
2018-05-23T04:56:36.489Z,17.10
2018-05-23T04:57:36.519Z,16.70
2018-05-23T04:58:36.466Z,16.20
2018-05-23T04:59:36.446Z,17.00
2018-05-23T05:00:36.440Z,16.50
2018-05-23T05:01:36.444Z,18.00
2018-05-23T05:02:36.386Z,17.20
2018-05-23T05:03:36.398Z,17.60
2018-05-23T05:04:36.384Z,17.00
2018-05-23T05:05:36.364Z,17.70
2018-05-23T05:06:36.349Z,18.00
2018-05-23T05:07:36.311Z,17.50
2018-05-23T05:08:36.327Z,17.70
2018-05-23T05:09:36.277Z,17.70
2018-05-23T05:10:36.266Z,17.80
2018-05-23T05:11:36.235Z,17.40
2018-05-23T05:12:36.216Z,17.20
2018-05-23T05:13:36.207Z,17.70
2018-05-23T05:14:36.176Z,17.40
2018-05-23T05:15:36.163Z,18.30
2018-05-23T05:16:36.144Z,18.30
2018-05-23T05:17:36.133Z,17.50
2018-05-23T05:18:36.122Z,18.10
2018-05-23T05:19:36.100Z,17.20
2018-05-23T05:20:36.110Z,18.00
2018-05-23T05:21:36.069Z,16.90
2018-05-23T05:22:36.046Z,17.40
2018-05-23T05:23:36.030Z,16.70
2018-05-23T05:24:36.022Z,17.50
2018-05-23T05:25:36.002Z,17.10
2018-05-23T05:26:35.979Z,17.40
2018-05-23T05:27:35.981Z,17.90
2018-05-23T05:28:35.951Z,17.40
2018-05-23T05:29:35.933Z,17.40
2018-05-23T05:30:35.925Z,17.60
2018-05-23T05:31:35.903Z,18.00
2018-05-23T05:32:35.916Z,17.00
2018-05-23T05:33:35.863Z,16.60
2018-05-23T05:34:35.877Z,17.70
2018-05-23T05:35:35.832Z,17.80
2018-05-23T05:36:35.814Z,17.40
2018-05-23T05:37:35.803Z,18.20
2018-05-23T05:38:35.782Z,17.70
2018-05-23T05:39:35.769Z,18.40
2018-05-23T05:40:35.841Z,17.60
2018-05-23T05:41:35.729Z,17.70
2018-05-23T05:42:35.711Z,17.40
2018-05-23T05:43:35.711Z,17.50
2018-05-23T05:44:35.695Z,18.30
2018-05-23T05:45:35.663Z,17.70
2018-05-23T05:46:35.661Z,17.20
2018-05-23T05:47:35.641Z,17.70
2018-05-23T05:48:35.617Z,18.70
2018-05-23T05:49:35.601Z,18.30
2018-05-23T05:50:35.583Z,18.00
2018-05-23T05:51:35.569Z,17.60
2018-05-23T05:52:35.614Z,18.20
2018-05-23T05:53:35.585Z,17.60
2018-05-23T05:54:35.514Z,17.80
2018-05-23T05:55:35.502Z,17.80
2018-05-23T05:56:35.484Z,18.80
2018-05-23T05:57:35.458Z,17.70
2018-05-23T05:58:35.452Z,17.90
2018-05-23T05:59:35.444Z,17.30
2018-05-23T06:00:35.413Z,17.20
2018-05-23T06:01:35.393Z,16.80
2018-05-23T06:02:35.385Z,17.40
2018-05-23T06:03:35.362Z,18.20
2018-05-23T06:04:35.349Z,17.70
2018-05-23T06:05:35.327Z,17.00
2018-05-23T06:06:35.331Z,17.00
2018-05-23T06:07:35.297Z,19.00
2018-05-23T06:08:35.279Z,17.40
2018-05-23T06:09:35.285Z,18.50
2018-05-23T06:10:35.255Z,17.10
2018-05-23T06:11:35.236Z,17.90
2018-05-23T06:12:35.216Z,17.50
2018-05-23T06:13:35.202Z,18.40
2018-05-23T06:14:35.182Z,17.60
2018-05-23T06:15:35.174Z,18.00
2018-05-23T06:16:35.154Z,18.40
2018-05-23T06:17:35.140Z,18.90
2018-05-23T06:18:35.144Z,17.90
2018-05-23T06:19:35.105Z,17.80
2018-05-23T06:20:35.081Z,17.90
2018-05-23T06:21:35.072Z,19.20
2018-05-23T06:22:35.051Z,17.90
2018-05-23T06:23:35.039Z,18.20
2018-05-23T06:24:35.023Z,18.00
2018-05-23T06:25:35.015Z,18.60
2018-05-23T06:26:34.992Z,18.80
2018-05-23T06:27:34.971Z,20.10
2018-05-23T06:28:34.958Z,18.90
2018-05-23T06:29:34.939Z,19.60
2018-05-23T06:30:34.928Z,20.30
2018-05-23T06:31:34.905Z,21.10
2018-05-23T06:32:34.891Z,20.80
2018-05-23T06:33:34.880Z,20.60
2018-05-23T06:34:34.858Z,22.30
2018-05-23T06:35:34.837Z,21.00
2018-05-23T06:36:34.826Z,22.70
2018-05-23T06:37:34.803Z,23.40
2018-05-23T06:38:34.788Z,23.90
2018-05-23T06:39:34.780Z,22.70
2018-05-23T06:40:34.760Z,22.20
2018-05-23T06:41:34.780Z,25.10
2018-05-23T06:42:34.732Z,24.90
2018-05-23T06:43:34.753Z,24.90
2018-05-23T06:44:34.700Z,25.10
2018-05-23T06:45:34.678Z,24.50
2018-05-23T06:46:34.656Z,24.50
2018-05-23T06:47:34.656Z,25.10
2018-05-23T06:48:34.655Z,24.20
2018-05-23T06:49:34.622Z,23.70
2018-05-23T06:50:34.642Z,23.30
2018-05-23T06:51:34.611Z,22.90
2018-05-23T06:52:34.575Z,22.30
2018-05-23T06:53:34.591Z,23.70
2018-05-23T06:54:34.549Z,22.80
2018-05-23T06:55:34.554Z,21.50
2018-05-23T06:56:34.505Z,21.10
2018-05-23T06:57:34.527Z,21.50
2018-05-23T06:58:34.476Z,20.10
2018-05-23T06:59:34.459Z,21.00
2018-05-23T07:00:34.435Z,19.90
2018-05-23T07:01:34.445Z,19.50
2018-05-23T07:02:34.418Z,19.40
2018-05-23T07:03:34.412Z,20.30
2018-05-23T07:04:34.384Z,19.50
2018-05-23T07:05:34.360Z,19.50
2018-05-23T07:06:34.338Z,18.80
2018-05-23T07:07:34.354Z,19.70
2018-05-23T07:08:34.323Z,19.20
2018-05-23T07:09:34.313Z,19.00
2018-05-23T07:10:34.306Z,18.70
2018-05-23T07:11:34.259Z,19.50
2018-05-23T07:12:34.246Z,19.30
2018-05-23T07:13:34.282Z,20.00
2018-05-23T07:14:34.248Z,19.50
2018-05-23T07:15:34.205Z,19.50
2018-05-23T07:16:34.224Z,19.10
2018-05-23T07:17:34.168Z,19.20
2018-05-23T07:18:34.182Z,19.90
2018-05-23T07:19:34.141Z,19.80
2018-05-23T07:20:34.120Z,19.20
2018-05-23T07:21:34.112Z,20.00
2018-05-23T07:22:34.100Z,19.50
2018-05-23T07:23:34.118Z,20.00
2018-05-23T07:24:34.061Z,20.00
2018-05-23T07:25:34.060Z,20.20
2018-05-23T07:26:34.044Z,20.70
2018-05-23T07:27:34.029Z,18.70
2018-05-23T07:28:34.006Z,20.30
2018-05-23T07:29:34.019Z,20.00
2018-05-23T07:30:33.968Z,19.50
2018-05-23T07:31:33.955Z,20.60
2018-05-23T07:32:33.953Z,20.00
2018-05-23T07:33:33.942Z,19.80
2018-05-23T07:34:33.941Z,20.90
2018-05-23T07:35:33.891Z,20.30
2018-05-23T07:36:33.891Z,21.20
2018-05-23T07:37:33.872Z,20.10
2018-05-23T07:38:33.871Z,20.90
2018-05-23T07:39:33.836Z,21.40
2018-05-23T07:40:33.833Z,20.90
2018-05-23T07:41:33.845Z,22.20
2018-05-23T07:42:33.796Z,21.60
2018-05-23T07:43:33.779Z,22.00
2018-05-23T07:44:33.768Z,22.20
2018-05-23T07:45:33.759Z,24.10
2018-05-23T07:46:33.756Z,23.20
2018-05-23T07:47:33.755Z,23.70
2018-05-23T07:48:33.725Z,23.50
2018-05-23T07:49:33.713Z,23.20
2018-05-23T07:50:33.706Z,23.20
2018-05-23T07:51:33.675Z,23.10
2018-05-23T07:52:33.759Z,22.80
2018-05-23T07:53:33.656Z,22.20
2018-05-23T07:54:33.680Z,23.10
2018-05-23T07:55:33.629Z,22.50
2018-05-23T07:56:33.597Z,21.20
2018-05-23T07:57:33.590Z,21.80
2018-05-23T07:58:33.577Z,21.20
2018-05-23T07:59:33.562Z,21.30
2018-05-23T08:00:33.602Z,20.60
2018-05-23T08:01:33.537Z,20.60
2018-05-23T08:02:33.537Z,22.00
2018-05-23T08:03:33.503Z,20.90
2018-05-23T08:04:33.486Z,20.80
2018-05-23T08:05:33.467Z,20.60
2018-05-23T08:06:33.466Z,20.10
2018-05-23T08:07:33.453Z,19.60
2018-05-23T08:08:33.431Z,19.10
2018-05-23T08:09:33.423Z,20.30
2018-05-23T08:10:33.411Z,19.90
2018-05-23T08:11:33.397Z,19.60
2018-05-23T08:12:33.392Z,19.50
2018-05-23T08:13:33.393Z,18.90
2018-05-23T08:14:33.360Z,18.80
2018-05-23T08:15:33.356Z,19.10
2018-05-23T08:16:33.356Z,18.80
2018-05-23T08:17:33.326Z,18.70
2018-05-23T08:18:33.309Z,18.90
2018-05-23T08:19:33.292Z,17.90
2018-05-23T08:20:33.306Z,18.60
2018-05-23T08:21:33.268Z,18.90
2018-05-23T08:22:33.259Z,17.70
2018-05-23T08:23:33.263Z,18.10
2018-05-23T08:24:33.376Z,18.00
2018-05-23T08:25:33.221Z,19.00
2018-05-23T08:26:33.218Z,16.80
2018-05-23T08:27:33.221Z,17.30
2018-05-23T08:28:33.220Z,17.40
2018-05-23T08:29:33.176Z,18.60
2018-05-23T08:30:33.171Z,17.80
2018-05-23T08:31:33.148Z,18.10
2018-05-23T08:32:33.141Z,17.30
2018-05-23T08:33:33.122Z,17.20
2018-05-23T08:34:33.148Z,18.00
2018-05-23T08:35:33.123Z,17.30
2018-05-23T08:36:33.105Z,17.80
2018-05-23T08:37:33.115Z,18.00
2018-05-23T08:38:33.081Z,17.80
2018-05-23T08:39:33.052Z,17.10
2018-05-23T08:40:33.053Z,17.00
2018-05-23T08:41:33.047Z,17.90
2018-05-23T08:42:33.041Z,17.20
2018-05-23T08:43:33.002Z,17.00
2018-05-23T08:44:32.994Z,16.80
2018-05-23T08:45:32.984Z,17.30
2018-05-23T08:46:32.974Z,16.60
2018-05-23T08:47:32.977Z,16.40
2018-05-23T08:48:32.943Z,18.00
2018-05-23T08:49:32.934Z,17.90
2018-05-23T08:50:32.948Z,17.20
2018-05-23T08:51:32.931Z,16.60
2018-05-23T08:52:32.925Z,16.10
2018-05-23T08:53:32.933Z,16.10
2018-05-23T08:54:32.888Z,15.40
2018-05-23T08:55:32.897Z,16.30
2018-05-23T08:56:32.872Z,16.00
2018-05-23T08:57:32.845Z,15.90
2018-05-23T08:58:32.861Z,16.90
2018-05-23T08:59:32.864Z,15.40
2018-05-23T09:00:32.832Z,15.80
2018-05-23T09:01:32.807Z,15.20
2018-05-23T09:02:32.793Z,15.60
2018-05-23T09:03:32.798Z,14.80
2018-05-23T09:04:32.807Z,15.80
2018-05-23T09:05:32.753Z,15.60
2018-05-23T09:06:32.762Z,16.00
2018-05-23T09:07:32.730Z,14.80
2018-05-23T09:08:32.740Z,15.30
2018-05-23T09:09:32.718Z,14.80
2018-05-23T09:10:32.720Z,15.20
2018-05-23T09:11:32.752Z,15.30
2018-05-23T09:12:32.759Z,14.60
2018-05-23T09:13:32.702Z,13.80
2018-05-23T09:14:32.675Z,15.10
2018-05-23T09:15:32.700Z,14.10
2018-05-23T09:16:32.630Z,14.60
2018-05-23T09:17:32.626Z,14.10
2018-05-23T09:18:32.626Z,14.40
2018-05-23T09:19:32.631Z,13.70
2018-05-23T09:20:32.615Z,14.70
2018-05-23T09:21:32.587Z,15.40
2018-05-23T09:22:32.577Z,14.40
2018-05-23T09:23:32.593Z,14.60
2018-05-23T09:24:32.546Z,14.40
2018-05-23T09:25:32.638Z,13.60
2018-05-23T09:26:32.545Z,14.00
2018-05-23T09:27:32.545Z,14.60
2018-05-23T09:28:32.550Z,13.00
2018-05-23T09:29:32.501Z,13.30
2018-05-23T09:30:32.543Z,14.10
2018-05-23T09:31:32.480Z,13.20
2018-05-23T09:32:32.477Z,13.30
2018-05-23T09:33:32.448Z,13.20
2018-05-23T09:34:32.467Z,13.20
2018-05-23T09:35:32.437Z,12.80
2018-05-23T09:36:32.449Z,12.50
2018-05-23T09:37:32.419Z,12.70
2018-05-23T09:38:32.438Z,13.10
2018-05-23T09:39:32.421Z,12.20
2018-05-23T09:40:32.376Z,13.10
2018-05-23T09:41:32.362Z,11.80
2018-05-23T09:42:32.366Z,11.70
2018-05-23T09:43:32.370Z,12.20
2018-05-23T09:44:32.398Z,11.80
2018-05-23T09:45:32.377Z,12.10
2018-05-23T09:46:32.340Z,11.00
2018-05-23T09:47:32.316Z,11.30
2018-05-23T09:48:32.319Z,11.60
2018-05-23T09:49:32.303Z,10.70
2018-05-23T09:50:32.339Z,10.90
2018-05-23T09:51:32.261Z,11.40
2018-05-23T09:52:32.256Z,11.20
2018-05-23T09:53:32.252Z,11.10
2018-05-23T09:54:32.234Z,10.70
2018-05-23T09:55:32.234Z,10.20
2018-05-23T09:56:32.213Z,10.40
2018-05-23T09:57:32.227Z,11.20
2018-05-23T09:58:32.235Z,9.50
2018-05-23T09:59:32.205Z,10.00
2018-05-23T10:00:32.176Z,10.70
2018-05-23T10:01:32.273Z,10.00
2018-05-23T10:02:32.221Z,10.40
2018-05-23T10:03:32.139Z,10.10
2018-05-23T10:04:32.133Z,9.30
2018-05-23T10:05:32.174Z,9.80
2018-05-23T10:06:32.131Z,9.70
2018-05-23T10:07:32.130Z,9.20
2018-05-23T10:08:32.138Z,8.70
2018-05-23T10:09:32.091Z,7.50
2018-05-23T10:10:32.101Z,7.50
2018-05-23T10:11:32.088Z,8.20
2018-05-23T10:12:32.065Z,7.90
2018-05-23T10:13:32.076Z,6.80
2018-05-23T10:14:32.063Z,7.00
2018-05-23T10:15:32.074Z,7.40
2018-05-23T10:16:32.038Z,7.40
2018-05-23T10:17:32.079Z,7.10
2018-05-23T10:18:32.016Z,7.00
2018-05-23T10:19:32.014Z,7.20
2018-05-23T10:20:31.985Z,6.90
2018-05-23T10:21:31.981Z,6.90
2018-05-23T10:22:32.059Z,6.50
2018-05-23T10:23:31.982Z,6.80
2018-05-23T10:24:31.967Z,7.00
2018-05-23T10:25:31.941Z,6.40
2018-05-23T10:26:31.933Z,6.30
2018-05-23T10:27:31.956Z,6.00
2018-05-23T10:28:31.979Z,6.10
2018-05-23T10:29:31.919Z,5.90
2018-05-23T10:30:31.903Z,6.20
2018-05-23T10:31:31.899Z,6.20
2018-05-23T10:32:31.906Z,5.70
2018-05-23T10:33:31.866Z,6.30
2018-05-23T10:34:31.850Z,5.90
2018-05-23T10:35:31.847Z,5.50
2018-05-23T10:36:31.831Z,5.50
2018-05-23T10:37:31.827Z,5.50
2018-05-23T10:38:31.843Z,5.80
2018-05-23T10:39:31.818Z,5.90
2018-05-23T10:40:31.790Z,5.70
2018-05-23T10:41:31.821Z,6.00
2018-05-23T10:42:31.781Z,5.70
2018-05-23T10:43:31.813Z,5.70
2018-05-23T10:44:31.779Z,5.60
2018-05-23T10:45:31.745Z,5.60
2018-05-23T10:46:31.741Z,5.60
2018-05-23T10:47:31.734Z,5.70
2018-05-23T10:48:31.731Z,5.10
2018-05-23T10:49:31.777Z,5.10
2018-05-23T10:50:31.716Z,5.50
2018-05-23T10:51:31.709Z,4.70
2018-05-23T10:52:31.715Z,5.20
2018-05-23T10:53:31.695Z,5.00
2018-05-23T10:54:31.674Z,5.10
2018-05-23T10:55:31.660Z,4.70
2018-05-23T10:56:31.680Z,4.60
2018-05-23T10:57:31.691Z,4.90
2018-05-23T10:58:31.661Z,4.50
2018-05-23T10:59:31.666Z,4.30
2018-05-23T11:00:31.642Z,4.60
2018-05-23T11:01:31.602Z,4.20
2018-05-23T11:02:31.596Z,4.10
2018-05-23T11:03:31.595Z,4.20
2018-05-23T11:04:31.582Z,4.60
2018-05-23T11:05:31.646Z,4.30
2018-05-23T11:06:31.572Z,3.90
2018-05-23T11:07:31.553Z,4.10
2018-05-23T11:08:31.543Z,4.20
2018-05-23T11:09:31.540Z,3.90
2018-05-23T11:10:31.548Z,4.20
2018-05-23T11:11:31.551Z,4.00
2018-05-23T11:12:31.535Z,3.90
2018-05-23T11:13:31.544Z,4.10
2018-05-23T11:14:31.521Z,4.30
2018-05-23T11:15:31.522Z,4.20
2018-05-23T11:16:31.521Z,3.50
2018-05-23T11:17:31.476Z,4.30
2018-05-23T11:18:31.451Z,4.20
2018-05-23T11:19:31.489Z,4.30
2018-05-23T11:20:31.472Z,3.80
2018-05-23T11:21:31.472Z,4.00
2018-05-23T11:22:31.444Z,4.10
2018-05-23T11:23:31.433Z,4.40
2018-05-23T11:24:31.430Z,4.10
2018-05-23T11:25:31.409Z,4.10
2018-05-23T11:26:31.401Z,4.30
2018-05-23T11:27:31.377Z,3.80
2018-05-23T11:28:31.390Z,3.60
2018-05-23T11:29:31.355Z,4.00
2018-05-23T11:30:31.354Z,3.70
2018-05-23T11:31:31.347Z,3.50
2018-05-23T11:32:31.353Z,3.50
2018-05-23T11:33:31.328Z,3.40
2018-05-23T11:34:31.305Z,3.40
2018-05-23T11:35:31.311Z,3.50
2018-05-23T11:36:31.298Z,3.00
2018-05-23T11:37:31.299Z,3.00
2018-05-23T11:38:31.268Z,2.90
2018-05-23T11:39:31.263Z,3.00
2018-05-23T11:40:31.294Z,3.00
2018-05-23T11:41:31.238Z,3.20
2018-05-23T11:42:31.267Z,3.20
2018-05-23T11:43:31.230Z,3.00
2018-05-23T11:44:31.227Z,3.00
2018-05-23T11:45:31.226Z,2.80
2018-05-23T11:46:31.243Z,3.00
2018-05-23T11:47:31.212Z,2.80
2018-05-23T11:48:31.175Z,2.70
2018-05-23T11:49:31.209Z,3.20
2018-05-23T11:50:31.166Z,2.70
2018-05-23T11:51:31.162Z,3.20
2018-05-23T11:52:31.153Z,2.90
2018-05-23T11:53:31.156Z,2.80
2018-05-23T11:54:31.166Z,2.90
2018-05-23T11:55:31.105Z,3.10
2018-05-23T11:56:31.106Z,2.90
2018-05-23T11:57:31.096Z,2.70
2018-05-23T11:58:31.100Z,2.80
2018-05-23T11:59:31.090Z,2.90
2018-05-23T12:00:31.075Z,2.90
2018-05-23T12:01:31.032Z,2.80
2018-05-23T12:02:31.019Z,3.00
2018-05-23T12:03:31.012Z,3.00
2018-05-23T12:04:31.011Z,2.90
2018-05-23T12:05:30.985Z,2.90
2018-05-23T12:06:30.983Z,3.20
2018-05-23T12:07:30.978Z,3.10
2018-05-23T12:08:30.985Z,2.90
2018-05-23T12:09:30.956Z,2.90
2018-05-23T12:10:31.086Z,3.30
2018-05-23T12:11:30.937Z,3.20
2018-05-23T12:12:30.941Z,3.30
2018-05-23T12:13:30.901Z,3.30
2018-05-23T12:14:30.910Z,3.30
2018-05-23T12:15:30.885Z,3.30
2018-05-23T12:16:30.880Z,3.30
2018-05-23T12:17:30.923Z,3.30
2018-05-23T12:18:30.872Z,3.60
2018-05-23T12:19:30.936Z,3.40
2018-05-23T12:20:30.840Z,3.50
2018-05-23T12:21:30.859Z,3.70
2018-05-23T12:22:30.819Z,3.60
2018-05-23T12:23:30.811Z,3.70
2018-05-23T12:24:30.820Z,3.70
2018-05-23T12:25:30.822Z,3.70
2018-05-23T12:26:30.811Z,3.70
2018-05-23T12:27:30.784Z,3.60
2018-05-23T12:28:30.743Z,3.70
2018-05-23T12:29:30.777Z,3.50
2018-05-23T12:30:30.763Z,3.40
2018-05-23T12:31:30.710Z,3.70
2018-05-23T12:32:30.736Z,3.60
2018-05-23T12:33:30.690Z,3.50
2018-05-23T12:34:30.680Z,3.90
2018-05-23T12:35:30.701Z,3.70
2018-05-23T12:36:30.666Z,3.60
2018-05-23T12:37:30.734Z,3.70
2018-05-23T12:38:30.638Z,3.90
2018-05-23T12:39:30.643Z,4.00
2018-05-23T12:40:30.662Z,3.90
2018-05-23T12:41:30.620Z,4.10
2018-05-23T12:42:30.617Z,4.10
2018-05-23T12:43:30.588Z,3.70
2018-05-23T12:44:30.597Z,3.80
2018-05-23T12:45:30.574Z,4.10
2018-05-23T12:46:30.588Z,4.30
2018-05-23T12:47:30.553Z,3.90
2018-05-23T12:48:30.561Z,3.80
2018-05-23T12:49:30.558Z,3.60
2018-05-23T12:50:30.559Z,3.90
2018-05-23T12:51:30.520Z,4.00
2018-05-23T12:52:30.515Z,4.30
2018-05-23T12:53:30.538Z,4.30
2018-05-23T12:54:30.515Z,4.30
2018-05-23T12:55:30.493Z,4.40
2018-05-23T12:56:30.478Z,4.10
2018-05-23T12:57:30.471Z,4.10
2018-05-23T12:58:30.459Z,3.90